Golden Iris — 3FZK4 — position and weather

sailwx.info

Track history (hours):
 
Tides and Currents Weather Stations Pressure Air Temp Water Temp Dewpoint Dewpoint Depression Visibility Wind Speed Wind Dir Waves Ship Positions

Golden Iris

Last reported at 2017-Nov-19 04:56 UTC. Time now 2017-Nov-20 07:53 UTC.
Position N 32°51' E 035°01'.

Length 163 m; draft 6 m.

Type: Passenger vessel. MMSI: 371771000.

Date/timePositionNaut miles runAvg speedWind from/ knotsBaromVisibWave heightAir tempDewpointWater temp
2017-Nov-19 04:56N 32°51' E 035°01'4 7.7
2017-Nov-19 04:28N 32°53' E 034°58'510.2
2017-Nov-19 04:00N 32°54' E 034°52'510.3
2017-Nov-19 03:30N 32°55' E 034°46'124 9.7
2017-Nov-18 14:50N 34°29' E 033°10'310.4
2017-Nov-18 14:30N 34°32' E 033°08'7 9.9
2017-Nov-18 13:47N 34°38' E 033°04'2 6.2
2017-Nov-18 13:30N 34°39' E 033°03'1 2.4
2017-Nov-18 12:59N 34°39' E 033°01'0 0.0
2017-Nov-18 12:29N 34°39' E 033°01'0 0.0
2017-Nov-18 11:59N 34°39' E 033°01'0 0.0
2017-Nov-18 11:29N 34°39' E 033°01'0 0.0
2017-Nov-18 10:59N 34°39' E 033°01'0 0.0
2017-Nov-18 10:29N 34°39' E 033°01'0 0.0
2017-Nov-18 09:59N 34°39' E 033°01'0 0.0
2017-Nov-18 09:23N 34°39' E 033°01'0 0.0
2017-Nov-18 08:59N 34°39' E 033°01'0 0.0
2017-Nov-18 08:29N 34°39' E 033°01'0 0.0
2017-Nov-18 07:59N 34°39' E 033°01'0 0.0
2017-Nov-18 07:29N 34°39' E 033°01'0 0.0
2017-Nov-18 06:59N 34°39' E 033°01'0 0.0
2017-Nov-18 06:29N 34°39' E 033°01'0 0.0
2017-Nov-18 05:59N 34°39' E 033°01'0 0.0
2017-Nov-18 05:29N 34°39' E 033°01'0 0.0
2017-Nov-18 04:59N 34°39' E 033°01'0 0.0
2017-Nov-18 04:29N 34°39' E 033°01'0 0.0
2017-Nov-18 03:59N 34°39' E 033°01'0 0.0
2017-Nov-18 03:29N 34°39' E 033°01'0 0.0
2017-Nov-18 02:59N 34°39' E 033°01'0 0.0
2017-Nov-18 02:29N 34°39' E 033°01'0 0.0
2017-Nov-18 01:59N 34°39' E 033°01'0 0.0
2017-Nov-18 01:29N 34°39' E 033°01'0 0.0
2017-Nov-18 00:59N 34°39' E 033°01'0 0.0
2017-Nov-18 00:29N 34°39' E 033°01'0 0.0
2017-Nov-17 23:59N 34°39' E 033°01'0 0.0
2017-Nov-17 23:29N 34°39' E 033°01'0 0.0
2017-Nov-17 22:59N 34°39' E 033°01'0 0.0
2017-Nov-17 22:29N 34°39' E 033°01'0 0.0
2017-Nov-17 21:59N 34°39' E 033°01'0 0.0
2017-Nov-17 21:29N 34°39' E 033°01'0 0.0
2017-Nov-17 20:59N 34°39' E 033°01'0 0.0
2017-Nov-17 20:29N 34°39' E 033°01'0 0.0
2017-Nov-17 19:59N 34°39' E 033°01'0 0.0
2017-Nov-17 19:29N 34°39' E 033°01'0 0.0
2017-Nov-17 18:59N 34°39' E 033°01'0 0.0
2017-Nov-17 18:29N 34°39' E 033°01'0 0.0
2017-Nov-17 17:59N 34°39' E 033°01'0 0.0
2017-Nov-17 17:29N 34°39' E 033°01'0 0.0
2017-Nov-17 16:59N 34°39' E 033°01'0 0.0
2017-Nov-17 16:29N 34°39' E 033°01'0 0.0
2017-Nov-17 15:59N 34°39' E 033°01'0 0.0
2017-Nov-17 15:29N 34°39' E 033°01'0 0.0
2017-Nov-17 14:59N 34°39' E 033°01'0 0.0
2017-Nov-17 14:29N 34°39' E 033°01'0 0.0
2017-Nov-17 13:59N 34°39' E 033°01'0 0.0
2017-Nov-17 13:29N 34°39' E 033°01'0 0.0
2017-Nov-17 12:59N 34°39' E 033°01'0 0.0
2017-Nov-17 12:29N 34°39' E 033°01'0 0.0
2017-Nov-17 11:59N 34°39' E 033°01'0 0.0
2017-Nov-17 11:29N 34°39' E 033°01'0 0.0
2017-Nov-17 10:59N 34°39' E 033°01'0 0.0
2017-Nov-17 10:29N 34°39' E 033°01'1 3.0
2017-Nov-17 10:00N 34°39' E 033°03'91 8.3
2017-Nov-16 22:57N 33°34' E 034°19'16 7.9
2017-Nov-16 20:58N 33°20' E 034°28'4 8.4
2017-Nov-16 20:29N 33°16' E 034°28'5 8.6
2017-Nov-16 19:55N 33°11' E 034°28'3 8.4
2017-Nov-16 19:30N 33°09' E 034°32'8 8.8
2017-Nov-16 18:39N 33°03' E 034°37'1 8.6
2017-Nov-16 18:30N 33°02' E 034°38'6 8.1
2017-Nov-16 17:43N 32°57' E 034°43'2 8.1
2017-Nov-16 17:30N 32°55' E 034°44'4 8.6
2017-Nov-16 17:00N 32°54' E 034°49'5 8.5
2017-Nov-16 16:27N 32°53' E 034°55'3 0.3
2017-Nov-16 03:56N 32°52' E 034°58'511.6
2017-Nov-16 03:29N 32°52' E 034°52'612.8
2017-Nov-16 03:00N 32°54' E 034°45'  
2017-Nov-12 13:34N 32°57' E 034°42'1 8.9
2017-Nov-12 13:27N 32°57' E 034°43'4 9.0
2017-Nov-12 12:58N 32°55' E 034°48'4 8.7
2017-Nov-12 12:30N 32°54' E 034°53'4 8.9
2017-Nov-12 12:00N 32°52' E 034°58'4 0.5
2017-Nov-12 03:43N 32°49' E 035°01'1 4.8
2017-Nov-12 03:30N 32°50' E 035°01'4 7.8
2017-Nov-12 03:00N 32°53' E 034°57'611.9
2017-Nov-12 02:30N 32°54' E 034°50'612.6
2017-Nov-12 02:00N 32°55' E 034°43'3 0.1
2017-Nov-10 13:15N 32°56' E 034°46'3 8.4
2017-Nov-10 12:52N 32°55' E 034°50'3 8.5
2017-Nov-10 12:30N 32°54' E 034°53'3 0.3
2017-Nov-10 03:20N 32°53' E 034°56'412.4
2017-Nov-10 03:01N 32°53' E 034°51'712.8
2017-Nov-10 02:30N 32°54' E 034°43'  
Track history (hours):
 
Tides and Currents Weather Stations Pressure Air Temp Water Temp Dewpoint Dewpoint Depression Visibility Wind Speed Wind Dir Waves Ship Positions

Golden Iris

Last reported at 2017-Nov-19 04:56 UTC. Time now 2017-Nov-20 07:53 UTC.
Position N 32°51' E 035°01'.

Length 163 m; draft 6 m.

Type: Passenger vessel. MMSI: 371771000.

Date/timePositionNaut miles runAvg speedWind from/ knotsBaromVisibWave heightAir tempDewpointWater temp
2017-Nov-19 04:56N 32°51' E 035°01'4 7.7
2017-Nov-19 04:28N 32°53' E 034°58'510.2
2017-Nov-19 04:00N 32°54' E 034°52'510.3
2017-Nov-19 03:30N 32°55' E 034°46'124 9.7
2017-Nov-18 14:50N 34°29' E 033°10'310.4
2017-Nov-18 14:30N 34°32' E 033°08'7 9.9
2017-Nov-18 13:47N 34°38' E 033°04'2 6.2
2017-Nov-18 13:30N 34°39' E 033°03'1 2.4
2017-Nov-18 12:59N 34°39' E 033°01'0 0.0
2017-Nov-18 12:29N 34°39' E 033°01'0 0.0
2017-Nov-18 11:59N 34°39' E 033°01'0 0.0
2017-Nov-18 11:29N 34°39' E 033°01'0 0.0
2017-Nov-18 10:59N 34°39' E 033°01'0 0.0
2017-Nov-18 10:29N 34°39' E 033°01'0 0.0
2017-Nov-18 09:59N 34°39' E 033°01'0 0.0
2017-Nov-18 09:23N 34°39' E 033°01'0 0.0
2017-Nov-18 08:59N 34°39' E 033°01'0 0.0
2017-Nov-18 08:29N 34°39' E 033°01'0 0.0
2017-Nov-18 07:59N 34°39' E 033°01'0 0.0
2017-Nov-18 07:29N 34°39' E 033°01'0 0.0
2017-Nov-18 06:59N 34°39' E 033°01'0 0.0
2017-Nov-18 06:29N 34°39' E 033°01'0 0.0
2017-Nov-18 05:59N 34°39' E 033°01'0 0.0
2017-Nov-18 05:29N 34°39' E 033°01'0 0.0
2017-Nov-18 04:59N 34°39' E 033°01'0 0.0
2017-Nov-18 04:29N 34°39' E 033°01'0 0.0
2017-Nov-18 03:59N 34°39' E 033°01'0 0.0
2017-Nov-18 03:29N 34°39' E 033°01'0 0.0
2017-Nov-18 02:59N 34°39' E 033°01'0 0.0
2017-Nov-18 02:29N 34°39' E 033°01'0 0.0
2017-Nov-18 01:59N 34°39' E 033°01'0 0.0
2017-Nov-18 01:29N 34°39' E 033°01'0 0.0
2017-Nov-18 00:59N 34°39' E 033°01'0 0.0
2017-Nov-18 00:29N 34°39' E 033°01'0 0.0
2017-Nov-17 23:59N 34°39' E 033°01'0 0.0
2017-Nov-17 23:29N 34°39' E 033°01'0 0.0
2017-Nov-17 22:59N 34°39' E 033°01'0 0.0
2017-Nov-17 22:29N 34°39' E 033°01'0 0.0
2017-Nov-17 21:59N 34°39' E 033°01'0 0.0
2017-Nov-17 21:29N 34°39' E 033°01'0 0.0
2017-Nov-17 20:59N 34°39' E 033°01'0 0.0
2017-Nov-17 20:29N 34°39' E 033°01'0 0.0
2017-Nov-17 19:59N 34°39' E 033°01'0 0.0
2017-Nov-17 19:29N 34°39' E 033°01'0 0.0
2017-Nov-17 18:59N 34°39' E 033°01'0 0.0
2017-Nov-17 18:29N 34°39' E 033°01'0 0.0
2017-Nov-17 17:59N 34°39' E 033°01'0 0.0
2017-Nov-17 17:29N 34°39' E 033°01'0 0.0
2017-Nov-17 16:59N 34°39' E 033°01'0 0.0
2017-Nov-17 16:29N 34°39' E 033°01'0 0.0
2017-Nov-17 15:59N 34°39' E 033°01'0 0.0
2017-Nov-17 15:29N 34°39' E 033°01'0 0.0
2017-Nov-17 14:59N 34°39' E 033°01'0 0.0
2017-Nov-17 14:29N 34°39' E 033°01'0 0.0
2017-Nov-17 13:59N 34°39' E 033°01'0 0.0
2017-Nov-17 13:29N 34°39' E 033°01'0 0.0
2017-Nov-17 12:59N 34°39' E 033°01'0 0.0
2017-Nov-17 12:29N 34°39' E 033°01'0 0.0
2017-Nov-17 11:59N 34°39' E 033°01'0 0.0
2017-Nov-17 11:29N 34°39' E 033°01'0 0.0
2017-Nov-17 10:59N 34°39' E 033°01'0 0.0
2017-Nov-17 10:29N 34°39' E 033°01'1 3.0
2017-Nov-17 10:00N 34°39' E 033°03'91 8.3
2017-Nov-16 22:57N 33°34' E 034°19'16 7.9
2017-Nov-16 20:58N 33°20' E 034°28'4 8.4
2017-Nov-16 20:29N 33°16' E 034°28'5 8.6
2017-Nov-16 19:55N 33°11' E 034°28'3 8.4
2017-Nov-16 19:30N 33°09' E 034°32'8 8.8
2017-Nov-16 18:39N 33°03' E 034°37'1 8.6
2017-Nov-16 18:30N 33°02' E 034°38'6 8.1
2017-Nov-16 17:43N 32°57' E 034°43'2 8.1
2017-Nov-16 17:30N 32°55' E 034°44'4 8.6
2017-Nov-16 17:00N 32°54' E 034°49'5 8.5
2017-Nov-16 16:27N 32°53' E 034°55'3 0.3
2017-Nov-16 03:56N 32°52' E 034°58'511.6
2017-Nov-16 03:29N 32°52' E 034°52'612.8
2017-Nov-16 03:00N 32°54' E 034°45'  
2017-Nov-12 13:34N 32°57' E 034°42'1 8.9
2017-Nov-12 13:27N 32°57' E 034°43'4 9.0
2017-Nov-12 12:58N 32°55' E 034°48'4 8.7
2017-Nov-12 12:30N 32°54' E 034°53'4 8.9
2017-Nov-12 12:00N 32°52' E 034°58'4 0.5
2017-Nov-12 03:43N 32°49' E 035°01'1 4.8
2017-Nov-12 03:30N 32°50' E 035°01'4 7.8
2017-Nov-12 03:00N 32°53' E 034°57'611.9
2017-Nov-12 02:30N 32°54' E 034°50'612.6
2017-Nov-12 02:00N 32°55' E 034°43'3 0.1
2017-Nov-10 13:15N 32°56' E 034°46'3 8.4
2017-Nov-10 12:52N 32°55' E 034°50'3 8.5
2017-Nov-10 12:30N 32°54' E 034°53'3 0.3
2017-Nov-10 03:20N 32°53' E 034°56'412.4
2017-Nov-10 03:01N 32°53' E 034°51'712.8
2017-Nov-10 02:30N 32°54' E 034°43'  

Dump ship's entire track history